sensor_id;sensor_type;location;lat;lon;timestamp;P1;durP1;ratioP1;P2;durP2;ratioP2
59442;SDS011;45247;47.466;19.004;2023-08-12T08:53:54;3.38;;;2.33;;
59442;SDS011;45247;47.466;19.004;2023-08-12T08:56:29;7.82;;;2.58;;
59442;SDS011;45247;47.466;19.004;2023-08-12T08:58:59;5.18;;;2.70;;
59442;SDS011;45247;47.466;19.004;2023-08-12T09:01:27;7.60;;;3.90;;
59442;SDS011;45247;47.466;19.004;2023-08-12T09:03:57;3.70;;;2.42;;
59442;SDS011;45247;47.466;19.004;2023-08-12T09:06:26;6.50;;;2.50;;
59442;SDS011;45247;47.466;19.004;2023-08-12T09:08:57;5.47;;;2.88;;
59442;SDS011;45247;47.466;19.004;2023-08-12T09:11:28;4.60;;;2.58;;
59442;SDS011;45247;47.466;19.004;2023-08-12T09:13:58;6.38;;;2.60;;
59442;SDS011;45247;47.466;19.004;2023-08-12T09:16:26;5.45;;;4.03;;
59442;SDS011;45247;47.466;19.004;2023-08-12T09:18:55;19.23;;;11.85;;
59442;SDS011;45247;47.466;19.004;2023-08-12T09:21:23;4.68;;;3.20;;
59442;SDS011;45247;47.466;19.004;2023-08-12T09:23:52;6.55;;;3.25;;
59442;SDS011;45247;47.466;19.004;2023-08-12T09:26:21;7.40;;;2.83;;
59442;SDS011;45247;47.466;19.004;2023-08-12T09:28:50;15.07;;;8.02;;
59442;SDS011;45247;47.466;19.004;2023-08-12T09:31:23;4.60;;;2.83;;
59442;SDS011;45247;47.466;19.004;2023-08-12T09:33:53;5.60;;;2.50;;
59442;SDS011;45247;47.466;19.004;2023-08-12T09:36:27;7.95;;;2.58;;
59442;SDS011;45247;47.466;19.004;2023-08-12T09:38:55;7.47;;;2.80;;
59442;SDS011;45247;47.466;19.004;2023-08-12T09:41:26;4.85;;;2.50;;
59442;SDS011;45247;47.466;19.004;2023-08-12T09:43:55;4.55;;;2.40;;
59442;SDS011;45247;47.466;19.004;2023-08-12T09:46:24;8.30;;;2.92;;
59442;SDS011;45247;47.466;19.004;2023-08-12T09:48:52;3.22;;;2.30;;
59442;SDS011;45247;47.466;19.004;2023-08-12T09:51:21;4.88;;;2.70;;
59442;SDS011;45247;47.466;19.004;2023-08-12T09:53:49;6.30;;;2.25;;
59442;SDS011;45247;47.466;19.004;2023-08-12T09:56:18;3.50;;;2.42;;
59442;SDS011;45247;47.466;19.004;2023-08-12T09:58:49;5.18;;;2.63;;
59442;SDS011;45247;47.466;19.004;2023-08-12T10:01:18;3.83;;;2.63;;
59442;SDS011;45247;47.466;19.004;2023-08-12T10:03:48;4.20;;;2.60;;
59442;SDS011;45247;47.466;19.004;2023-08-12T10:06:17;3.10;;;2.50;;
59442;SDS011;45247;47.466;19.004;2023-08-12T10:08:47;2.95;;;2.42;;
59442;SDS011;45247;47.466;19.004;2023-08-12T10:11:16;7.20;;;2.72;;
59442;SDS011;45247;47.466;19.004;2023-08-12T10:13:45;4.20;;;2.50;;
59442;SDS011;45247;47.466;19.004;2023-08-12T10:16:16;6.53;;;2.70;;
59442;SDS011;45247;47.466;19.004;2023-08-12T10:18:45;4.68;;;2.58;;
59442;SDS011;45247;47.466;19.004;2023-08-12T10:21:15;8.52;;;2.80;;
59442;SDS011;45247;47.466;19.004;2023-08-12T10:23:43;5.03;;;2.65;;
59442;SDS011;45247;47.466;19.004;2023-08-12T10:26:13;4.93;;;2.47;;
59442;SDS011;45247;47.466;19.004;2023-08-12T10:28:43;5.32;;;2.60;;
59442;SDS011;45247;47.466;19.004;2023-08-12T10:31:11;4.50;;;2.50;;
59442;SDS011;45247;47.466;19.004;2023-08-12T10:33:41;5.57;;;2.47;;
59442;SDS011;45247;47.466;19.004;2023-08-12T10:36:10;4.10;;;2.67;;
59442;SDS011;45247;47.466;19.004;2023-08-12T10:38:39;4.22;;;2.28;;
59442;SDS011;45247;47.466;19.004;2023-08-12T10:41:15;4.43;;;2.40;;
59442;SDS011;45247;47.466;19.004;2023-08-12T10:43:48;6.88;;;2.78;;
59442;SDS011;45247;47.466;19.004;2023-08-12T10:46:23;4.88;;;2.42;;
59442;SDS011;45247;47.466;19.004;2023-08-12T10:49:04;7.05;;;2.60;;
59442;SDS011;45247;47.466;19.004;2023-08-12T10:51:39;5.90;;;2.80;;
59442;SDS011;45247;47.466;19.004;2023-08-12T10:54:14;4.53;;;2.55;;
59442;SDS011;45247;47.466;19.004;2023-08-12T10:59:53;4.55;;;2.70;;
59442;SDS011;45247;47.466;19.004;2023-08-12T11:02:25;4.20;;;2.40;;
59442;SDS011;45247;47.466;19.004;2023-08-12T11:04:57;3.72;;;2.80;;
59442;SDS011;45247;47.466;19.004;2023-08-12T11:07:32;5.28;;;3.03;;
59442;SDS011;45247;47.466;19.004;2023-08-12T11:10:05;8.82;;;2.55;;
59442;SDS011;45247;47.466;19.004;2023-08-12T11:12:39;4.88;;;2.67;;
59442;SDS011;45247;47.466;19.004;2023-08-12T11:15:08;5.57;;;2.40;;
59442;SDS011;45247;47.466;19.004;2023-08-12T11:17:38;3.15;;;2.60;;
59442;SDS011;45247;47.466;19.004;2023-08-12T11:20:09;3.78;;;2.60;;
59442;SDS011;45247;47.466;19.004;2023-08-12T11:22:39;3.03;;;2.17;;
59442;SDS011;45247;47.466;19.004;2023-08-12T11:25:11;3.92;;;2.40;;
59442;SDS011;45247;47.466;19.004;2023-08-12T11:27:43;3.03;;;2.40;;
59442;SDS011;45247;47.466;19.004;2023-08-12T11:30:12;5.40;;;2.50;;
59442;SDS011;45247;47.466;19.004;2023-08-12T11:32:42;3.15;;;2.50;;
59442;SDS011;45247;47.466;19.004;2023-08-12T11:35:13;6.53;;;2.40;;
59442;SDS011;45247;47.466;19.004;2023-08-12T11:37:43;4.13;;;2.88;;
59442;SDS011;45247;47.466;19.004;2023-08-12T11:40:14;6.22;;;2.67;;
59442;SDS011;45247;47.466;19.004;2023-08-12T11:42:44;4.35;;;2.13;;
59442;SDS011;45247;47.466;19.004;2023-08-12T11:45:15;3.42;;;2.25;;
59442;SDS011;45247;47.466;19.004;2023-08-12T11:47:45;4.28;;;2.42;;
59442;SDS011;45247;47.466;19.004;2023-08-12T11:50:21;4.03;;;2.25;;
59442;SDS011;45247;47.466;19.004;2023-08-12T11:52:51;4.38;;;2.40;;
59442;SDS011;45247;47.466;19.004;2023-08-12T11:55:20;3.50;;;2.30;;
59442;SDS011;45247;47.466;19.004;2023-08-12T11:57:49;3.72;;;2.40;;
59442;SDS011;45247;47.466;19.004;2023-08-12T12:00:19;3.13;;;2.38;;
59442;SDS011;45247;47.466;19.004;2023-08-12T12:02:48;4.60;;;2.50;;
59442;SDS011;45247;47.466;19.004;2023-08-12T12:05:18;4.60;;;2.22;;
59442;SDS011;45247;47.466;19.004;2023-08-12T12:07:51;3.10;;;2.22;;
59442;SDS011;45247;47.466;19.004;2023-08-12T12:10:20;3.67;;;2.22;;
59442;SDS011;45247;47.466;19.004;2023-08-12T12:12:49;3.53;;;2.20;;
59442;SDS011;45247;47.466;19.004;2023-08-12T12:15:17;3.70;;;2.47;;
59442;SDS011;45247;47.466;19.004;2023-08-12T12:17:46;3.97;;;2.28;;
59442;SDS011;45247;47.466;19.004;2023-08-12T12:20:15;4.95;;;2.53;;
59442;SDS011;45247;47.466;19.004;2023-08-12T12:22:43;4.60;;;2.35;;
59442;SDS011;45247;47.466;19.004;2023-08-12T12:25:14;4.10;;;2.30;;
59442;SDS011;45247;47.466;19.004;2023-08-12T12:27:45;4.47;;;2.50;;
59442;SDS011;45247;47.466;19.004;2023-08-12T12:30:15;3.85;;;2.47;;
59442;SDS011;45247;47.466;19.004;2023-08-12T12:32:45;2.42;;;2.00;;
59442;SDS011;45247;47.466;19.004;2023-08-12T12:35:13;3.00;;;2.17;;
59442;SDS011;45247;47.466;19.004;2023-08-12T12:37:42;5.80;;;2.47;;
59442;SDS011;45247;47.466;19.004;2023-08-12T12:40:11;2.47;;;2.15;;
59442;SDS011;45247;47.466;19.004;2023-08-12T12:42:40;8.52;;;2.53;;
59442;SDS011;45247;47.466;19.004;2023-08-12T12:45:09;3.45;;;2.40;;
59442;SDS011;45247;47.466;19.004;2023-08-12T12:47:37;3.63;;;2.50;;
59442;SDS011;45247;47.466;19.004;2023-08-12T12:50:06;3.88;;;2.20;;
59442;SDS011;45247;47.466;19.004;2023-08-12T12:52:34;3.95;;;2.40;;
59442;SDS011;45247;47.466;19.004;2023-08-12T12:55:03;3.60;;;2.35;;
59442;SDS011;45247;47.466;19.004;2023-08-12T12:57:31;3.30;;;2.30;;
59442;SDS011;45247;47.466;19.004;2023-08-12T13:00:01;4.30;;;2.05;;
59442;SDS011;45247;47.466;19.004;2023-08-12T13:02:30;6.63;;;2.22;;
59442;SDS011;45247;47.466;19.004;2023-08-12T13:04:59;3.63;;;2.28;;
59442;SDS011;45247;47.466;19.004;2023-08-12T13:07:27;3.40;;;2.40;;
59442;SDS011;45247;47.466;19.004;2023-08-12T13:09:55;3.97;;;2.30;;
59442;SDS011;45247;47.466;19.004;2023-08-12T13:12:24;3.65;;;2.42;;
59442;SDS011;45247;47.466;19.004;2023-08-12T13:14:52;2.45;;;1.98;;
59442;SDS011;45247;47.466;19.004;2023-08-12T13:17:21;7.85;;;2.40;;
59442;SDS011;45247;47.466;19.004;2023-08-12T13:19:49;3.60;;;2.20;;
59442;SDS011;45247;47.466;19.004;2023-08-12T13:22:18;5.30;;;2.35;;
59442;SDS011;45247;47.466;19.004;2023-08-12T13:24:46;2.65;;;2.05;;
59442;SDS011;45247;47.466;19.004;2023-08-12T13:27:14;3.40;;;2.25;;
59442;SDS011;45247;47.466;19.004;2023-08-12T13:29:43;5.40;;;2.40;;
59442;SDS011;45247;47.466;19.004;2023-08-12T13:32:11;3.40;;;2.20;;
59442;SDS011;45247;47.466;19.004;2023-08-12T13:34:42;4.38;;;2.22;;
59442;SDS011;45247;47.466;19.004;2023-08-12T13:37:12;4.00;;;2.20;;
59442;SDS011;45247;47.466;19.004;2023-08-12T13:39:41;4.20;;;2.22;;
59442;SDS011;45247;47.466;19.004;2023-08-12T13:42:09;2.83;;;2.20;;
59442;SDS011;45247;47.466;19.004;2023-08-12T13:44:38;3.53;;;2.13;;
59442;SDS011;45247;47.466;19.004;2023-08-12T13:47:06;2.60;;;2.05;;
59442;SDS011;45247;47.466;19.004;2023-08-12T13:49:34;4.47;;;2.42;;
59442;SDS011;45247;47.466;19.004;2023-08-12T13:52:04;2.65;;;2.08;;
59442;SDS011;45247;47.466;19.004;2023-08-12T13:54:33;2.97;;;2.20;;
59442;SDS011;45247;47.466;19.004;2023-08-12T13:57:02;7.47;;;2.75;;
59442;SDS011;45247;47.466;19.004;2023-08-12T13:59:30;5.90;;;2.63;;
59442;SDS011;45247;47.466;19.004;2023-08-12T14:01:58;4.63;;;2.28;;
59442;SDS011;45247;47.466;19.004;2023-08-12T14:04:27;6.45;;;2.15;;
59442;SDS011;45247;47.466;19.004;2023-08-12T14:06:55;2.90;;;2.20;;
59442;SDS011;45247;47.466;19.004;2023-08-12T14:09:25;3.53;;;2.20;;
59442;SDS011;45247;47.466;19.004;2023-08-12T14:11:54;4.32;;;2.22;;
59442;SDS011;45247;47.466;19.004;2023-08-12T14:14:22;5.32;;;2.33;;
59442;SDS011;45247;47.466;19.004;2023-08-12T14:16:54;3.30;;;2.03;;
59442;SDS011;45247;47.466;19.004;2023-08-12T14:19:22;3.88;;;2.60;;
59442;SDS011;45247;47.466;19.004;2023-08-12T14:21:50;2.92;;;2.00;;
59442;SDS011;45247;47.466;19.004;2023-08-12T14:24:18;3.22;;;2.28;;
59442;SDS011;45247;47.466;19.004;2023-08-12T14:26:49;3.20;;;2.20;;
59442;SDS011;45247;47.466;19.004;2023-08-12T14:29:17;4.18;;;2.42;;
59442;SDS011;45247;47.466;19.004;2023-08-12T14:31:45;4.22;;;2.25;;
59442;SDS011;45247;47.466;19.004;2023-08-12T14:34:14;3.80;;;2.20;;
59442;SDS011;45247;47.466;19.004;2023-08-12T14:36:42;2.92;;;2.05;;
59442;SDS011;45247;47.466;19.004;2023-08-12T14:39:12;7.65;;;2.30;;
59442;SDS011;45247;47.466;19.004;2023-08-12T14:41:40;3.13;;;2.10;;
59442;SDS011;45247;47.466;19.004;2023-08-12T14:44:10;4.22;;;2.38;;
59442;SDS011;45247;47.466;19.004;2023-08-12T14:46:38;4.07;;;2.22;;
59442;SDS011;45247;47.466;19.004;2023-08-12T14:49:07;3.83;;;2.25;;
59442;SDS011;45247;47.466;19.004;2023-08-12T14:51:36;4.00;;;2.00;;
59442;SDS011;45247;47.466;19.004;2023-08-12T14:54:04;2.35;;;1.80;;
59442;SDS011;45247;47.466;19.004;2023-08-12T14:56:34;4.72;;;2.00;;
59442;SDS011;45247;47.466;19.004;2023-08-12T14:59:02;11.07;;;2.70;;
59442;SDS011;45247;47.466;19.004;2023-08-12T15:01:32;4.30;;;2.40;;
59442;SDS011;45247;47.466;19.004;2023-08-12T15:04:00;3.72;;;2.33;;
59442;SDS011;45247;47.466;19.004;2023-08-12T15:06:29;3.33;;;2.20;;
59442;SDS011;45247;47.466;19.004;2023-08-12T15:08:57;5.00;;;2.13;;
59442;SDS011;45247;47.466;19.004;2023-08-12T15:11:28;4.95;;;2.10;;
59442;SDS011;45247;47.466;19.004;2023-08-12T15:13:56;4.25;;;2.50;;
59442;SDS011;45247;47.466;19.004;2023-08-12T15:16:24;6.07;;;2.88;;
59442;SDS011;45247;47.466;19.004;2023-08-12T15:18:54;3.13;;;2.17;;
59442;SDS011;45247;47.466;19.004;2023-08-12T15:21:22;3.55;;;2.13;;
59442;SDS011;45247;47.466;19.004;2023-08-12T15:23:51;3.30;;;2.08;;
59442;SDS011;45247;47.466;19.004;2023-08-12T15:26:19;3.58;;;2.08;;
59442;SDS011;45247;47.466;19.004;2023-08-12T15:28:48;3.15;;;2.00;;
59442;SDS011;45247;47.466;19.004;2023-08-12T15:31:17;2.72;;;1.85;;
59442;SDS011;45247;47.466;19.004;2023-08-12T15:33:46;2.60;;;1.90;;
59442;SDS011;45247;47.466;19.004;2023-08-12T15:36:16;6.15;;;2.70;;
59442;SDS011;45247;47.466;19.004;2023-08-12T15:38:45;4.15;;;2.00;;
59442;SDS011;45247;47.466;19.004;2023-08-12T15:41:14;3.40;;;2.03;;
59442;SDS011;45247;47.466;19.004;2023-08-12T15:43:43;3.85;;;2.20;;
59442;SDS011;45247;47.466;19.004;2023-08-12T15:46:13;3.92;;;2.03;;
59442;SDS011;45247;47.466;19.004;2023-08-12T15:48:42;3.65;;;2.20;;
59442;SDS011;45247;47.466;19.004;2023-08-12T15:51:10;7.47;;;2.38;;
59442;SDS011;45247;47.466;19.004;2023-08-12T15:53:43;7.47;;;2.20;;
59442;SDS011;45247;47.466;19.004;2023-08-12T15:56:11;3.88;;;2.40;;
59442;SDS011;45247;47.466;19.004;2023-08-12T15:58:39;4.47;;;2.33;;
59442;SDS011;45247;47.466;19.004;2023-08-12T16:01:07;5.70;;;2.40;;
59442;SDS011;45247;47.466;19.004;2023-08-12T16:03:37;6.13;;;2.30;;
59442;SDS011;45247;47.466;19.004;2023-08-12T16:06:05;4.53;;;2.35;;
59442;SDS011;45247;47.466;19.004;2023-08-12T16:08:34;2.80;;;1.92;;
59442;SDS011;45247;47.466;19.004;2023-08-12T16:11:03;5.82;;;2.20;;
59442;SDS011;45247;47.466;19.004;2023-08-12T16:13:32;3.25;;;2.10;;
59442;SDS011;45247;47.466;19.004;2023-08-12T16:16:00;5.07;;;2.63;;
59442;SDS011;45247;47.466;19.004;2023-08-12T16:18:29;3.08;;;2.38;;
59442;SDS011;45247;47.466;19.004;2023-08-12T16:20:57;2.75;;;2.00;;
59442;SDS011;45247;47.466;19.004;2023-08-12T16:23:25;4.25;;;2.55;;
59442;SDS011;45247;47.466;19.004;2023-08-12T16:25:57;3.90;;;2.50;;
59442;SDS011;45247;47.466;19.004;2023-08-12T16:28:27;9.48;;;2.38;;
59442;SDS011;45247;47.466;19.004;2023-08-12T16:30:55;5.30;;;2.72;;
59442;SDS011;45247;47.466;19.004;2023-08-12T16:33:24;3.10;;;2.22;;
59442;SDS011;45247;47.466;19.004;2023-08-12T16:35:52;4.10;;;2.10;;
59442;SDS011;45247;47.466;19.004;2023-08-12T16:38:20;5.28;;;2.00;;
59442;SDS011;45247;47.466;19.004;2023-08-12T16:40:49;6.75;;;2.45;;
59442;SDS011;45247;47.466;19.004;2023-08-12T16:43:17;4.25;;;2.20;;
59442;SDS011;45247;47.466;19.004;2023-08-12T16:45:46;3.65;;;2.60;;
59442;SDS011;45247;47.466;19.004;2023-08-12T16:48:15;3.88;;;2.47;;
59442;SDS011;45247;47.466;19.004;2023-08-12T16:50:43;4.28;;;2.38;;
59442;SDS011;45247;47.466;19.004;2023-08-12T16:53:11;4.10;;;2.40;;
59442;SDS011;45247;47.466;19.004;2023-08-12T16:55:39;4.47;;;2.45;;
59442;SDS011;45247;47.466;19.004;2023-08-12T16:58:08;6.05;;;2.03;;
59442;SDS011;45247;47.466;19.004;2023-08-12T17:00:36;3.78;;;2.25;;
59442;SDS011;45247;47.466;19.004;2023-08-12T17:03:06;4.43;;;2.22;;
59442;SDS011;45247;47.466;19.004;2023-08-12T17:05:34;3.63;;;2.13;;
59442;SDS011;45247;47.466;19.004;2023-08-12T17:08:02;7.10;;;2.10;;
59442;SDS011;45247;47.466;19.004;2023-08-12T17:10:31;4.63;;;2.17;;
59442;SDS011;45247;47.466;19.004;2023-08-12T17:13:01;5.43;;;2.42;;
59442;SDS011;45247;47.466;19.004;2023-08-12T17:15:29;11.30;;;2.45;;
59442;SDS011;45247;47.466;19.004;2023-08-12T17:17:57;5.00;;;2.70;;
59442;SDS011;45247;47.466;19.004;2023-08-12T17:20:27;3.40;;;2.30;;
59442;SDS011;45247;47.466;19.004;2023-08-12T17:22:55;5.20;;;2.70;;
59442;SDS011;45247;47.466;19.004;2023-08-12T17:25:23;3.95;;;2.47;;
59442;SDS011;45247;47.466;19.004;2023-08-12T17:27:51;3.42;;;2.30;;
59442;SDS011;45247;47.466;19.004;2023-08-12T17:30:19;8.60;;;3.30;;
59442;SDS011;45247;47.466;19.004;2023-08-12T17:32:48;4.22;;;2.50;;
59442;SDS011;45247;47.466;19.004;2023-08-12T17:35:16;7.30;;;2.60;;
59442;SDS011;45247;47.466;19.004;2023-08-12T17:37:46;6.15;;;3.05;;
59442;SDS011;45247;47.466;19.004;2023-08-12T17:40:14;6.63;;;3.00;;
59442;SDS011;45247;47.466;19.004;2023-08-12T17:42:48;5.22;;;3.25;;
59442;SDS011;45247;47.466;19.004;2023-08-12T17:45:17;9.75;;;3.15;;
59442;SDS011;45247;47.466;19.004;2023-08-12T17:47:53;12.57;;;3.05;;
59442;SDS011;45247;47.466;19.004;2023-08-12T17:50:22;4.32;;;2.65;;
59442;SDS011;45247;47.466;19.004;2023-08-12T17:52:52;4.65;;;3.17;;
59442;SDS011;45247;47.466;19.004;2023-08-12T17:55:20;6.70;;;3.35;;
59442;SDS011;45247;47.466;19.004;2023-08-12T17:57:49;5.40;;;3.10;;
59442;SDS011;45247;47.466;19.004;2023-08-12T18:00:17;5.40;;;3.78;;
59442;SDS011;45247;47.466;19.004;2023-08-12T18:02:46;6.10;;;3.20;;
59442;SDS011;45247;47.466;19.004;2023-08-12T18:05:15;6.05;;;3.40;;
59442;SDS011;45247;47.466;19.004;2023-08-12T18:07:43;10.88;;;3.88;;
59442;SDS011;45247;47.466;19.004;2023-08-12T18:10:12;5.90;;;3.17;;
59442;SDS011;45247;47.466;19.004;2023-08-12T18:12:41;3.60;;;2.90;;
59442;SDS011;45247;47.466;19.004;2023-08-12T18:15:09;3.88;;;3.22;;
59442;SDS011;45247;47.466;19.004;2023-08-12T18:17:37;6.00;;;3.08;;
59442;SDS011;45247;47.466;19.004;2023-08-12T18:20:06;6.20;;;3.60;;
59442;SDS011;45247;47.466;19.004;2023-08-12T18:22:35;5.05;;;3.03;;
59442;SDS011;45247;47.466;19.004;2023-08-12T18:25:03;8.45;;;3.50;;
59442;SDS011;45247;47.466;19.004;2023-08-12T18:27:34;7.13;;;3.35;;
59442;SDS011;45247;47.466;19.004;2023-08-12T18:30:02;9.32;;;3.60;;
59442;SDS011;45247;47.466;19.004;2023-08-12T18:32:31;7.60;;;3.45;;
59442;SDS011;45247;47.466;19.004;2023-08-12T18:34:59;6.97;;;3.45;;
59442;SDS011;45247;47.466;19.004;2023-08-12T18:37:27;5.47;;;3.13;;
59442;SDS011;45247;47.466;19.004;2023-08-12T18:39:56;7.18;;;3.25;;
59442;SDS011;45247;47.466;19.004;2023-08-12T18:42:24;4.65;;;2.88;;
59442;SDS011;45247;47.466;19.004;2023-08-12T18:44:54;7.32;;;3.22;;
59442;SDS011;45247;47.466;19.004;2023-08-12T18:47:23;5.25;;;3.33;;
59442;SDS011;45247;47.466;19.004;2023-08-12T18:49:52;5.68;;;3.33;;
59442;SDS011;45247;47.466;19.004;2023-08-12T18:52:21;5.07;;;3.45;;
59442;SDS011;45247;47.466;19.004;2023-08-12T18:54:50;4.30;;;3.22;;
59442;SDS011;45247;47.466;19.004;2023-08-12T18:57:18;6.00;;;3.17;;
59442;SDS011;45247;47.466;19.004;2023-08-12T18:59:47;8.07;;;3.55;;
59442;SDS011;45247;47.466;19.004;2023-08-12T19:02:20;4.75;;;3.15;;
59442;SDS011;45247;47.466;19.004;2023-08-12T19:04:48;6.30;;;3.15;;
59442;SDS011;45247;47.466;19.004;2023-08-12T19:07:16;7.13;;;3.20;;
59442;SDS011;45247;47.466;19.004;2023-08-12T19:09:45;4.65;;;3.33;;
59442;SDS011;45247;47.466;19.004;2023-08-12T19:12:13;5.30;;;3.50;;
59442;SDS011;45247;47.466;19.004;2023-08-12T19:14:43;7.65;;;3.67;;
59442;SDS011;45247;47.466;19.004;2023-08-12T19:17:12;8.60;;;4.00;;
59442;SDS011;45247;47.466;19.004;2023-08-12T19:19:41;7.07;;;3.85;;
59442;SDS011;45247;47.466;19.004;2023-08-12T19:22:13;10.25;;;3.50;;
59442;SDS011;45247;47.466;19.004;2023-08-12T19:24:41;5.07;;;3.60;;
59442;SDS011;45247;47.466;19.004;2023-08-12T19:27:10;8.10;;;3.78;;
59442;SDS011;45247;47.466;19.004;2023-08-12T19:29:38;5.13;;;3.65;;
59442;SDS011;45247;47.466;19.004;2023-08-12T19:32:07;5.50;;;3.67;;
59442;SDS011;45247;47.466;19.004;2023-08-12T19:34:37;4.05;;;3.13;;
59442;SDS011;45247;47.466;19.004;2023-08-12T19:37:08;5.68;;;3.25;;
59442;SDS011;45247;47.466;19.004;2023-08-12T19:39:38;5.13;;;3.50;;
59442;SDS011;45247;47.466;19.004;2023-08-12T19:42:07;5.65;;;2.88;;
59442;SDS011;45247;47.466;19.004;2023-08-12T19:44:37;6.53;;;3.38;;
59442;SDS011;45247;47.466;19.004;2023-08-12T19:47:07;11.63;;;4.15;;
59442;SDS011;45247;47.466;19.004;2023-08-12T19:49:35;9.75;;;4.22;;
59442;SDS011;45247;47.466;19.004;2023-08-12T19:52:04;8.25;;;3.90;;
59442;SDS011;45247;47.466;19.004;2023-08-12T19:54:35;8.88;;;4.10;;
59442;SDS011;45247;47.466;19.004;2023-08-12T19:57:04;7.97;;;4.00;;
59442;SDS011;45247;47.466;19.004;2023-08-12T19:59:32;9.20;;;4.60;;
59442;SDS011;45247;47.466;19.004;2023-08-12T20:02:02;9.73;;;4.30;;
59442;SDS011;45247;47.466;19.004;2023-08-12T20:04:31;5.03;;;3.38;;
59442;SDS011;45247;47.466;19.004;2023-08-12T20:07:00;6.85;;;4.00;;
59442;SDS011;45247;47.466;19.004;2023-08-12T20:09:29;11.02;;;4.18;;
59442;SDS011;45247;47.466;19.004;2023-08-12T20:12:00;6.95;;;4.15;;
59442;SDS011;45247;47.466;19.004;2023-08-12T20:14:29;6.40;;;3.78;;
59442;SDS011;45247;47.466;19.004;2023-08-12T20:16:58;8.68;;;4.47;;
59442;SDS011;45247;47.466;19.004;2023-08-12T20:19:28;6.72;;;4.22;;
59442;SDS011;45247;47.466;19.004;2023-08-12T20:21:57;4.32;;;3.20;;
59442;SDS011;45247;47.466;19.004;2023-08-12T20:24:26;5.93;;;3.15;;
59442;SDS011;45247;47.466;19.004;2023-08-12T20:26:55;6.35;;;4.07;;
59442;SDS011;45247;47.466;19.004;2023-08-12T20:29:25;5.68;;;3.67;;
59442;SDS011;45247;47.466;19.004;2023-08-12T20:31:55;4.93;;;3.40;;
59442;SDS011;45247;47.466;19.004;2023-08-12T20:34:23;10.93;;;4.20;;
59442;SDS011;45247;47.466;19.004;2023-08-12T20:36:52;6.30;;;3.85;;
59442;SDS011;45247;47.466;19.004;2023-08-12T20:39:23;9.65;;;4.20;;
59442;SDS011;45247;47.466;19.004;2023-08-12T20:41:53;5.82;;;3.88;;
59442;SDS011;45247;47.466;19.004;2023-08-12T20:44:24;5.45;;;3.78;;
59442;SDS011;45247;47.466;19.004;2023-08-12T20:46:53;9.43;;;4.50;;
59442;SDS011;45247;47.466;19.004;2023-08-12T20:49:22;5.72;;;3.88;;
59442;SDS011;45247;47.466;19.004;2023-08-12T20:51:51;5.38;;;4.25;;
59442;SDS011;45247;47.466;19.004;2023-08-12T20:54:20;9.82;;;4.20;;
59442;SDS011;45247;47.466;19.004;2023-08-12T20:56:51;7.43;;;4.43;;
59442;SDS011;45247;47.466;19.004;2023-08-12T20:59:20;5.60;;;3.95;;
59442;SDS011;45247;47.466;19.004;2023-08-12T21:01:51;5.35;;;4.05;;
59442;SDS011;45247;47.466;19.004;2023-08-12T21:04:19;8.93;;;4.10;;
59442;SDS011;45247;47.466;19.004;2023-08-12T21:06:48;5.40;;;4.50;;
59442;SDS011;45247;47.466;19.004;2023-08-12T21:09:21;5.47;;;4.00;;
59442;SDS011;45247;47.466;19.004;2023-08-12T21:11:50;8.20;;;4.47;;
59442;SDS011;45247;47.466;19.004;2023-08-12T21:14:18;6.55;;;4.18;;
59442;SDS011;45247;47.466;19.004;2023-08-12T21:16:47;6.88;;;3.90;;
59442;SDS011;45247;47.466;19.004;2023-08-12T21:19:17;5.60;;;3.88;;
59442;SDS011;45247;47.466;19.004;2023-08-12T21:21:45;4.30;;;3.40;;
59442;SDS011;45247;47.466;19.004;2023-08-12T21:24:13;7.47;;;4.32;;
59442;SDS011;45247;47.466;19.004;2023-08-12T21:26:41;8.07;;;4.18;;
59442;SDS011;45247;47.466;19.004;2023-08-12T21:29:10;8.45;;;4.15;;
59442;SDS011;45247;47.466;19.004;2023-08-12T21:31:38;8.02;;;4.43;;
59442;SDS011;45247;47.466;19.004;2023-08-12T21:34:07;8.18;;;4.22;;
59442;SDS011;45247;47.466;19.004;2023-08-12T21:36:36;8.55;;;4.25;;
59442;SDS011;45247;47.466;19.004;2023-08-12T21:39:05;8.38;;;5.40;;
59442;SDS011;45247;47.466;19.004;2023-08-12T21:41:33;8.65;;;4.22;;
59442;SDS011;45247;47.466;19.004;2023-08-12T21:44:02;6.93;;;4.57;;
59442;SDS011;45247;47.466;19.004;2023-08-12T21:46:31;6.97;;;4.63;;
59442;SDS011;45247;47.466;19.004;2023-08-12T21:48:59;6.72;;;3.83;;
59442;SDS011;45247;47.466;19.004;2023-08-12T21:51:27;6.05;;;4.13;;
59442;SDS011;45247;47.466;19.004;2023-08-12T21:53:57;8.13;;;4.47;;
59442;SDS011;45247;47.466;19.004;2023-08-12T21:56:25;8.57;;;4.60;;
59442;SDS011;45247;47.466;19.004;2023-08-12T21:58:53;6.47;;;4.78;;
59442;SDS011;45247;47.466;19.004;2023-08-12T22:01:21;5.10;;;4.00;;
59442;SDS011;45247;47.466;19.004;2023-08-12T22:03:50;4.63;;;3.70;;
59442;SDS011;45247;47.466;19.004;2023-08-12T22:06:18;6.53;;;4.00;;
59442;SDS011;45247;47.466;19.004;2023-08-12T22:08:46;10.75;;;5.03;;
59442;SDS011;45247;47.466;19.004;2023-08-12T22:11:16;10.82;;;6.55;;
59442;SDS011;45247;47.466;19.004;2023-08-12T22:13:44;8.82;;;4.97;;
59442;SDS011;45247;47.466;19.004;2023-08-12T22:16:12;11.48;;;5.13;;
59442;SDS011;45247;47.466;19.004;2023-08-12T22:18:41;8.15;;;5.20;;
59442;SDS011;45247;47.466;19.004;2023-08-12T22:21:09;6.90;;;4.55;;
59442;SDS011;45247;47.466;19.004;2023-08-12T22:23:37;6.85;;;4.68;;
59442;SDS011;45247;47.466;19.004;2023-08-12T22:26:05;5.57;;;4.10;;
59442;SDS011;45247;47.466;19.004;2023-08-12T22:28:35;5.20;;;4.15;;
59442;SDS011;45247;47.466;19.004;2023-08-12T22:31:03;6.10;;;4.10;;
59442;SDS011;45247;47.466;19.004;2023-08-12T22:33:31;5.93;;;3.65;;
59442;SDS011;45247;47.466;19.004;2023-08-12T22:36:00;6.53;;;4.00;;
59442;SDS011;45247;47.466;19.004;2023-08-12T22:38:28;5.05;;;3.78;;
59442;SDS011;45247;47.466;19.004;2023-08-12T22:40:56;5.68;;;4.20;;
59442;SDS011;45247;47.466;19.004;2023-08-12T22:43:24;5.68;;;4.03;;
59442;SDS011;45247;47.466;19.004;2023-08-12T22:45:54;5.85;;;4.32;;
59442;SDS011;45247;47.466;19.004;2023-08-12T22:48:22;7.10;;;4.00;;
59442;SDS011;45247;47.466;19.004;2023-08-12T22:50:50;5.43;;;4.10;;
59442;SDS011;45247;47.466;19.004;2023-08-12T22:53:19;7.30;;;4.18;;
59442;SDS011;45247;47.466;19.004;2023-08-12T22:55:48;7.72;;;4.95;;
59442;SDS011;45247;47.466;19.004;2023-08-12T22:58:17;6.20;;;3.92;;
59442;SDS011;45247;47.466;19.004;2023-08-12T23:00:46;6.38;;;4.53;;
59442;SDS011;45247;47.466;19.004;2023-08-12T23:03:15;8.88;;;4.57;;
59442;SDS011;45247;47.466;19.004;2023-08-12T23:05:44;10.20;;;4.80;;
59442;SDS011;45247;47.466;19.004;2023-08-12T23:08:13;5.60;;;4.25;;
59442;SDS011;45247;47.466;19.004;2023-08-12T23:10:42;6.38;;;3.90;;
59442;SDS011;45247;47.466;19.004;2023-08-12T23:13:10;8.88;;;4.20;;
59442;SDS011;45247;47.466;19.004;2023-08-12T23:15:41;11.88;;;4.55;;
59442;SDS011;45247;47.466;19.004;2023-08-12T23:18:10;8.70;;;5.07;;
59442;SDS011;45247;47.466;19.004;2023-08-12T23:20:40;7.22;;;4.25;;
59442;SDS011;45247;47.466;19.004;2023-08-12T23:23:09;8.88;;;4.43;;
59442;SDS011;45247;47.466;19.004;2023-08-12T23:25:37;7.10;;;4.50;;
59442;SDS011;45247;47.466;19.004;2023-08-12T23:28:08;8.88;;;4.60;;
59442;SDS011;45247;47.466;19.004;2023-08-12T23:30:37;4.95;;;3.65;;
59442;SDS011;45247;47.466;19.004;2023-08-12T23:33:05;7.45;;;4.45;;
59442;SDS011;45247;47.466;19.004;2023-08-12T23:35:33;8.35;;;4.35;;
59442;SDS011;45247;47.466;19.004;2023-08-12T23:38:03;5.80;;;4.55;;
59442;SDS011;45247;47.466;19.004;2023-08-12T23:40:31;7.65;;;4.28;;